sensor_id;sensor_type;location;lat;lon;timestamp;temperature;humidity
16999;DHT22;10211;49.476;11.010;2023-09-12T00:01:23;17.80;99.90
16999;DHT22;10211;49.476;11.010;2023-09-12T00:03:50;17.80;99.90
16999;DHT22;10211;49.476;11.010;2023-09-12T00:06:17;17.70;99.90
16999;DHT22;10211;49.476;11.010;2023-09-12T00:08:44;17.70;99.90
16999;DHT22;10211;49.476;11.010;2023-09-12T00:11:11;17.70;99.90
16999;DHT22;10211;49.476;11.010;2023-09-12T00:13:40;17.60;99.90
16999;DHT22;10211;49.476;11.010;2023-09-12T00:16:07;17.60;99.90
16999;DHT22;10211;49.476;11.010;2023-09-12T00:18:35;17.60;99.90
16999;DHT22;10211;49.476;11.010;2023-09-12T00:21:02;17.60;99.90
16999;DHT22;10211;49.476;11.010;2023-09-12T00:23:29;17.50;99.90
16999;DHT22;10211;49.476;11.010;2023-09-12T00:25:56;17.50;99.90
16999;DHT22;10211;49.476;11.010;2023-09-12T00:28:25;17.50;99.90
16999;DHT22;10211;49.476;11.010;2023-09-12T00:30:53;17.40;99.90
16999;DHT22;10211;49.476;11.010;2023-09-12T00:33:43;17.40;99.90
16999;DHT22;10211;49.476;11.010;2023-09-12T00:36:43;17.40;99.90
16999;DHT22;10211;49.476;11.010;2023-09-12T00:39:09;17.40;99.90
16999;DHT22;10211;49.476;11.010;2023-09-12T00:41:36;17.30;99.90
16999;DHT22;10211;49.476;11.010;2023-09-12T00:44:03;17.30;99.90
16999;DHT22;10211;49.476;11.010;2023-09-12T00:46:32;17.30;99.90
16999;DHT22;10211;49.476;11.010;2023-09-12T00:48:59;17.20;99.90
16999;DHT22;10211;49.476;11.010;2023-09-12T00:51:26;17.20;99.90
16999;DHT22;10211;49.476;11.010;2023-09-12T00:53:53;17.20;99.90
16999;DHT22;10211;49.476;11.010;2023-09-12T00:56:21;17.20;99.90
16999;DHT22;10211;49.476;11.010;2023-09-12T00:58:48;17.10;99.90
16999;DHT22;10211;49.476;11.010;2023-09-12T01:01:17;17.10;99.90
16999;DHT22;10211;49.476;11.010;2023-09-12T01:03:45;17.10;99.90
16999;DHT22;10211;49.476;11.010;2023-09-12T01:06:12;17.60;99.90
16999;DHT22;10211;49.476;11.010;2023-09-12T01:08:41;17.00;99.90
16999;DHT22;10211;49.476;11.010;2023-09-12T01:11:08;17.00;99.90
16999;DHT22;10211;49.476;11.010;2023-09-12T01:13:35;17.00;99.90
16999;DHT22;10211;49.476;11.010;2023-09-12T01:16:02;16.90;99.90
16999;DHT22;10211;49.476;11.010;2023-09-12T01:18:28;16.90;99.90
16999;DHT22;10211;49.476;11.010;2023-09-12T01:21:14;16.90;99.90
16999;DHT22;10211;49.476;11.010;2023-09-12T01:23:58;16.80;99.90
16999;DHT22;10211;49.476;11.010;2023-09-12T01:26:30;16.80;99.90
16999;DHT22;10211;49.476;11.010;2023-09-12T01:29:04;16.90;99.90
16999;DHT22;10211;49.476;11.010;2023-09-12T01:31:33;16.80;99.90
16999;DHT22;10211;49.476;11.010;2023-09-12T01:34:08;16.70;99.90
16999;DHT22;10211;49.476;11.010;2023-09-12T01:36:35;16.70;99.90
16999;DHT22;10211;49.476;11.010;2023-09-12T01:39:02;16.70;99.90
16999;DHT22;10211;49.476;11.010;2023-09-12T01:41:30;16.70;99.90
16999;DHT22;10211;49.476;11.010;2023-09-12T01:43:59;16.60;99.90
16999;DHT22;10211;49.476;11.010;2023-09-12T01:46:31;16.70;99.90
16999;DHT22;10211;49.476;11.010;2023-09-12T01:49:00;16.60;99.90
16999;DHT22;10211;49.476;11.010;2023-09-12T01:51:29;16.60;99.90
16999;DHT22;10211;49.476;11.010;2023-09-12T01:53:55;16.60;99.90
16999;DHT22;10211;49.476;11.010;2023-09-12T01:56:23;16.50;99.90
16999;DHT22;10211;49.476;11.010;2023-09-12T01:58:50;16.50;99.90
16999;DHT22;10211;49.476;11.010;2023-09-12T02:01:17;16.60;99.90
16999;DHT22;10211;49.476;11.010;2023-09-12T02:03:45;16.40;99.90
16999;DHT22;10211;49.476;11.010;2023-09-12T02:06:12;16.40;99.90
16999;DHT22;10211;49.476;11.010;2023-09-12T02:08:38;16.40;99.90
16999;DHT22;10211;49.476;11.010;2023-09-12T02:11:05;16.40;99.90
16999;DHT22;10211;49.476;11.010;2023-09-12T02:13:32;16.40;99.90
16999;DHT22;10211;49.476;11.010;2023-09-12T02:15:59;16.30;99.90
16999;DHT22;10211;49.476;11.010;2023-09-12T02:18:26;16.30;99.90
16999;DHT22;10211;49.476;11.010;2023-09-12T02:20:54;16.20;99.90
16999;DHT22;10211;49.476;11.010;2023-09-12T02:23:21;16.30;99.90
16999;DHT22;10211;49.476;11.010;2023-09-12T02:25:48;16.20;99.90
16999;DHT22;10211;49.476;11.010;2023-09-12T02:28:15;16.20;99.90
16999;DHT22;10211;49.476;11.010;2023-09-12T02:30:41;16.20;99.90
16999;DHT22;10211;49.476;11.010;2023-09-12T02:33:08;16.10;99.90
16999;DHT22;10211;49.476;11.010;2023-09-12T02:35:36;16.10;99.90
16999;DHT22;10211;49.476;11.010;2023-09-12T02:38:04;16.10;99.90
16999;DHT22;10211;49.476;11.010;2023-09-12T02:40:41;16.10;99.90
16999;DHT22;10211;49.476;11.010;2023-09-12T02:43:08;16.10;99.90
16999;DHT22;10211;49.476;11.010;2023-09-12T02:45:35;16.10;99.90
16999;DHT22;10211;49.476;11.010;2023-09-12T02:48:02;16.10;99.90
16999;DHT22;10211;49.476;11.010;2023-09-12T02:50:29;16.00;99.90
16999;DHT22;10211;49.476;11.010;2023-09-12T02:52:56;16.00;99.90
16999;DHT22;10211;49.476;11.010;2023-09-12T02:55:24;16.00;99.90
16999;DHT22;10211;49.476;11.010;2023-09-12T02:57:50;16.00;99.90
16999;DHT22;10211;49.476;11.010;2023-09-12T03:00:17;15.90;99.90
16999;DHT22;10211;49.476;11.010;2023-09-12T03:02:45;15.90;99.90
16999;DHT22;10211;49.476;11.010;2023-09-12T03:05:13;15.90;99.90
16999;DHT22;10211;49.476;11.010;2023-09-12T03:07:39;15.90;99.90
16999;DHT22;10211;49.476;11.010;2023-09-12T03:10:09;15.90;99.90
16999;DHT22;10211;49.476;11.010;2023-09-12T03:12:37;15.80;99.90
16999;DHT22;10211;49.476;11.010;2023-09-12T03:15:04;15.80;99.90
16999;DHT22;10211;49.476;11.010;2023-09-12T03:17:32;15.80;99.90
16999;DHT22;10211;49.476;11.010;2023-09-12T03:19:59;15.80;99.90
16999;DHT22;10211;49.476;11.010;2023-09-12T03:22:26;15.80;99.90
16999;DHT22;10211;49.476;11.010;2023-09-12T03:24:53;15.80;99.90
16999;DHT22;10211;49.476;11.010;2023-09-12T03:27:20;15.70;99.90
16999;DHT22;10211;49.476;11.010;2023-09-12T03:29:48;15.70;99.90
16999;DHT22;10211;49.476;11.010;2023-09-12T03:32:14;15.70;99.90
16999;DHT22;10211;49.476;11.010;2023-09-12T03:34:41;15.70;99.90
16999;DHT22;10211;49.476;11.010;2023-09-12T03:37:08;15.70;99.90
16999;DHT22;10211;49.476;11.010;2023-09-12T03:39:35;15.70;99.90
16999;DHT22;10211;49.476;11.010;2023-09-12T03:42:01;15.70;99.90
16999;DHT22;10211;49.476;11.010;2023-09-12T03:44:28;15.60;99.90
16999;DHT22;10211;49.476;11.010;2023-09-12T03:46:56;15.60;99.90
16999;DHT22;10211;49.476;11.010;2023-09-12T03:49:23;15.60;99.90
16999;DHT22;10211;49.476;11.010;2023-09-12T03:51:50;15.60;99.90
16999;DHT22;10211;49.476;11.010;2023-09-12T03:54:17;16.30;99.90
16999;DHT22;10211;49.476;11.010;2023-09-12T03:56:43;15.60;99.90
16999;DHT22;10211;49.476;11.010;2023-09-12T03:59:10;15.60;99.90
16999;DHT22;10211;49.476;11.010;2023-09-12T04:01:37;15.60;99.90
16999;DHT22;10211;49.476;11.010;2023-09-12T04:04:05;15.50;99.90
16999;DHT22;10211;49.476;11.010;2023-09-12T04:06:32;15.60;99.90
16999;DHT22;10211;49.476;11.010;2023-09-12T04:08:59;15.60;99.90
16999;DHT22;10211;49.476;11.010;2023-09-12T04:11:26;15.60;99.90
16999;DHT22;10211;49.476;11.010;2023-09-12T04:13:52;15.60;99.90
16999;DHT22;10211;49.476;11.010;2023-09-12T04:16:19;15.60;99.90
16999;DHT22;10211;49.476;11.010;2023-09-12T04:18:46;15.70;99.90
16999;DHT22;10211;49.476;11.010;2023-09-12T04:21:14;15.60;99.90
16999;DHT22;10211;49.476;11.010;2023-09-12T04:23:40;15.60;99.90
16999;DHT22;10211;49.476;11.010;2023-09-12T04:26:07;15.50;99.90
16999;DHT22;10211;49.476;11.010;2023-09-12T04:28:34;15.60;99.90
16999;DHT22;10211;49.476;11.010;2023-09-12T04:31:01;15.50;99.90
16999;DHT22;10211;49.476;11.010;2023-09-12T04:33:28;15.50;99.90
16999;DHT22;10211;49.476;11.010;2023-09-12T04:35:57;15.50;99.90
16999;DHT22;10211;49.476;11.010;2023-09-12T04:38:25;15.60;99.90
16999;DHT22;10211;49.476;11.010;2023-09-12T04:40:56;15.50;99.90
16999;DHT22;10211;49.476;11.010;2023-09-12T04:43:23;15.40;99.90
16999;DHT22;10211;49.476;11.010;2023-09-12T04:45:50;15.40;99.90
16999;DHT22;10211;49.476;11.010;2023-09-12T04:48:16;15.50;99.90
16999;DHT22;10211;49.476;11.010;2023-09-12T04:50:43;15.50;99.90
16999;DHT22;10211;49.476;11.010;2023-09-12T04:53:10;15.50;99.90
16999;DHT22;10211;49.476;11.010;2023-09-12T04:55:39;15.50;99.90
16999;DHT22;10211;49.476;11.010;2023-09-12T04:58:06;15.40;99.90
16999;DHT22;10211;49.476;11.010;2023-09-12T05:00:33;15.50;99.90
16999;DHT22;10211;49.476;11.010;2023-09-12T05:03:01;15.50;99.90
16999;DHT22;10211;49.476;11.010;2023-09-12T05:05:29;15.60;99.90
16999;DHT22;10211;49.476;11.010;2023-09-12T05:07:56;15.50;99.90
16999;DHT22;10211;49.476;11.010;2023-09-12T05:10:22;15.60;99.90
16999;DHT22;10211;49.476;11.010;2023-09-12T05:12:52;15.60;99.90
16999;DHT22;10211;49.476;11.010;2023-09-12T05:15:19;15.60;99.90
16999;DHT22;10211;49.476;11.010;2023-09-12T05:17:45;15.60;99.90
16999;DHT22;10211;49.476;11.010;2023-09-12T05:20:12;16.10;99.90
16999;DHT22;10211;49.476;11.010;2023-09-12T05:22:39;15.80;99.90
16999;DHT22;10211;49.476;11.010;2023-09-12T05:25:06;15.80;99.90
16999;DHT22;10211;49.476;11.010;2023-09-12T05:27:32;15.80;99.90
16999;DHT22;10211;49.476;11.010;2023-09-12T05:30:00;15.90;99.90
16999;DHT22;10211;49.476;11.010;2023-09-12T05:32:27;16.00;99.90
16999;DHT22;10211;49.476;11.010;2023-09-12T05:34:54;16.00;99.90
16999;DHT22;10211;49.476;11.010;2023-09-12T05:37:21;16.10;99.90
16999;DHT22;10211;49.476;11.010;2023-09-12T05:39:48;16.20;99.90
16999;DHT22;10211;49.476;11.010;2023-09-12T05:42:17;16.30;99.90
16999;DHT22;10211;49.476;11.010;2023-09-12T05:44:46;16.30;99.90
16999;DHT22;10211;49.476;11.010;2023-09-12T05:47:15;16.60;99.90
16999;DHT22;10211;49.476;11.010;2023-09-12T05:49:42;16.50;99.90
16999;DHT22;10211;49.476;11.010;2023-09-12T05:52:23;16.60;99.90
16999;DHT22;10211;49.476;11.010;2023-09-12T05:54:50;16.60;99.90
16999;DHT22;10211;49.476;11.010;2023-09-12T05:57:16;16.70;99.90
16999;DHT22;10211;49.476;11.010;2023-09-12T05:59:43;16.80;99.90
16999;DHT22;10211;49.476;11.010;2023-09-12T06:02:10;16.90;99.90
16999;DHT22;10211;49.476;11.010;2023-09-12T06:04:38;16.90;99.90
16999;DHT22;10211;49.476;11.010;2023-09-12T06:07:05;17.00;99.90
16999;DHT22;10211;49.476;11.010;2023-09-12T06:09:31;17.10;99.90
16999;DHT22;10211;49.476;11.010;2023-09-12T06:11:58;17.20;99.90
16999;DHT22;10211;49.476;11.010;2023-09-12T06:14:25;17.30;99.90
16999;DHT22;10211;49.476;11.010;2023-09-12T06:16:52;17.30;99.90
16999;DHT22;10211;49.476;11.010;2023-09-12T06:19:19;17.40;99.90
16999;DHT22;10211;49.476;11.010;2023-09-12T06:21:47;17.40;99.90
16999;DHT22;10211;49.476;11.010;2023-09-12T06:24:15;17.50;99.90
16999;DHT22;10211;49.476;11.010;2023-09-12T06:26:42;17.60;99.90
16999;DHT22;10211;49.476;11.010;2023-09-12T06:29:09;17.80;99.90
16999;DHT22;10211;49.476;11.010;2023-09-12T06:31:36;18.40;99.90
16999;DHT22;10211;49.476;11.010;2023-09-12T06:34:03;18.80;99.90
16999;DHT22;10211;49.476;11.010;2023-09-12T06:36:29;19.00;99.90
16999;DHT22;10211;49.476;11.010;2023-09-12T06:38:58;19.00;99.90
16999;DHT22;10211;49.476;11.010;2023-09-12T06:41:25;18.90;99.90
16999;DHT22;10211;49.476;11.010;2023-09-12T06:43:52;18.90;99.90
16999;DHT22;10211;49.476;11.010;2023-09-12T06:46:22;18.90;99.90
16999;DHT22;10211;49.476;11.010;2023-09-12T06:48:49;19.00;99.90
16999;DHT22;10211;49.476;11.010;2023-09-12T06:51:16;19.40;99.90
16999;DHT22;10211;49.476;11.010;2023-09-12T06:53:43;20.10;99.90
16999;DHT22;10211;49.476;11.010;2023-09-12T06:56:12;20.50;99.90
16999;DHT22;10211;49.476;11.010;2023-09-12T06:58:39;20.60;99.90
16999;DHT22;10211;49.476;11.010;2023-09-12T07:01:07;20.60;99.90
16999;DHT22;10211;49.476;11.010;2023-09-12T07:03:35;20.40;99.90
16999;DHT22;10211;49.476;11.010;2023-09-12T07:06:03;20.30;99.90
16999;DHT22;10211;49.476;11.010;2023-09-12T07:08:31;20.30;99.90
16999;DHT22;10211;49.476;11.010;2023-09-12T07:10:58;20.30;99.90
16999;DHT22;10211;49.476;11.010;2023-09-12T07:13:32;20.30;99.90
16999;DHT22;10211;49.476;11.010;2023-09-12T07:16:00;20.30;99.90
16999;DHT22;10211;49.476;11.010;2023-09-12T07:18:29;20.80;99.90
16999;DHT22;10211;49.476;11.010;2023-09-12T07:21:00;22.00;99.90
16999;DHT22;10211;49.476;11.010;2023-09-12T07:23:27;22.40;99.90
16999;DHT22;10211;49.476;11.010;2023-09-12T07:25:55;22.30;99.90
16999;DHT22;10211;49.476;11.010;2023-09-12T07:28:25;22.20;99.90
16999;DHT22;10211;49.476;11.010;2023-09-12T07:30:54;22.10;99.90
16999;DHT22;10211;49.476;11.010;2023-09-12T07:33:21;22.00;99.90
16999;DHT22;10211;49.476;11.010;2023-09-12T07:35:48;22.10;99.90
16999;DHT22;10211;49.476;11.010;2023-09-12T07:38:15;22.40;99.90
16999;DHT22;10211;49.476;11.010;2023-09-12T07:40:41;22.60;99.90
16999;DHT22;10211;49.476;11.010;2023-09-12T07:43:08;22.60;99.90
16999;DHT22;10211;49.476;11.010;2023-09-12T07:45:36;22.60;99.90
16999;DHT22;10211;49.476;11.010;2023-09-12T07:48:06;22.60;99.90
16999;DHT22;10211;49.476;11.010;2023-09-12T07:50:33;22.40;99.90
16999;DHT22;10211;49.476;11.010;2023-09-12T07:53:00;22.50;99.90
16999;DHT22;10211;49.476;11.010;2023-09-12T07:55:28;22.40;99.90
16999;DHT22;10211;49.476;11.010;2023-09-12T07:57:56;22.50;99.90
16999;DHT22;10211;49.476;11.010;2023-09-12T08:00:24;22.60;99.90
16999;DHT22;10211;49.476;11.010;2023-09-12T08:02:50;22.70;99.90
16999;DHT22;10211;49.476;11.010;2023-09-12T08:05:19;22.80;99.90
16999;DHT22;10211;49.476;11.010;2023-09-12T08:07:45;22.80;99.90
16999;DHT22;10211;49.476;11.010;2023-09-12T08:10:12;22.90;99.90
16999;DHT22;10211;49.476;11.010;2023-09-12T08:12:39;23.10;99.90
16999;DHT22;10211;49.476;11.010;2023-09-12T08:15:08;23.30;99.90
16999;DHT22;10211;49.476;11.010;2023-09-12T08:17:35;23.30;99.90
16999;DHT22;10211;49.476;11.010;2023-09-12T08:20:02;23.50;99.90
16999;DHT22;10211;49.476;11.010;2023-09-12T08:22:30;23.60;99.90
16999;DHT22;10211;49.476;11.010;2023-09-12T08:24:57;23.60;99.90
16999;DHT22;10211;49.476;11.010;2023-09-12T08:27:24;23.70;99.90
16999;DHT22;10211;49.476;11.010;2023-09-12T08:29:50;23.90;99.90
16999;DHT22;10211;49.476;11.010;2023-09-12T08:32:17;24.10;99.90
16999;DHT22;10211;49.476;11.010;2023-09-12T08:34:44;24.50;99.90
16999;DHT22;10211;49.476;11.010;2023-09-12T08:37:11;24.70;99.90
16999;DHT22;10211;49.476;11.010;2023-09-12T08:39:44;25.10;99.90
16999;DHT22;10211;49.476;11.010;2023-09-12T08:42:12;25.80;99.90
16999;DHT22;10211;49.476;11.010;2023-09-12T08:44:40;26.30;99.90
16999;DHT22;10211;49.476;11.010;2023-09-12T08:47:08;26.60;99.90
16999;DHT22;10211;49.476;11.010;2023-09-12T08:49:36;26.70;99.90
16999;DHT22;10211;49.476;11.010;2023-09-12T08:52:03;27.00;99.90
16999;DHT22;10211;49.476;11.010;2023-09-12T08:54:30;27.10;99.90
16999;DHT22;10211;49.476;11.010;2023-09-12T08:57:00;26.90;99.90
16999;DHT22;10211;49.476;11.010;2023-09-12T08:59:27;26.60;99.90
16999;DHT22;10211;49.476;11.010;2023-09-12T09:01:56;26.30;99.90
16999;DHT22;10211;49.476;11.010;2023-09-12T09:04:23;26.10;99.90
16999;DHT22;10211;49.476;11.010;2023-09-12T09:06:52;25.90;99.90
16999;DHT22;10211;49.476;11.010;2023-09-12T09:09:20;25.80;99.90
16999;DHT22;10211;49.476;11.010;2023-09-12T09:11:47;25.70;99.90
16999;DHT22;10211;49.476;11.010;2023-09-12T09:14:16;25.80;99.90
16999;DHT22;10211;49.476;11.010;2023-09-12T09:16:43;25.90;99.90
16999;DHT22;10211;49.476;11.010;2023-09-12T09:19:10;26.20;99.90
16999;DHT22;10211;49.476;11.010;2023-09-12T09:21:38;26.50;99.90
16999;DHT22;10211;49.476;11.010;2023-09-12T09:24:07;26.70;99.90
16999;DHT22;10211;49.476;11.010;2023-09-12T09:26:44;27.10;99.90
16999;DHT22;10211;49.476;11.010;2023-09-12T09:29:14;27.40;99.90
16999;DHT22;10211;49.476;11.010;2023-09-12T09:31:44;27.80;99.90
16999;DHT22;10211;49.476;11.010;2023-09-12T09:34:12;28.10;99.90
16999;DHT22;10211;49.476;11.010;2023-09-12T09:36:42;28.30;99.90
16999;DHT22;10211;49.476;11.010;2023-09-12T09:39:09;28.40;99.90
16999;DHT22;10211;49.476;11.010;2023-09-12T09:41:37;28.70;99.90
16999;DHT22;10211;49.476;11.010;2023-09-12T09:44:05;29.30;99.90
16999;DHT22;10211;49.476;11.010;2023-09-12T09:46:31;30.90;99.90
16999;DHT22;10211;49.476;11.010;2023-09-12T09:49:00;33.50;99.90
16999;DHT22;10211;49.476;11.010;2023-09-12T09:51:29;36.10;95.40
16999;DHT22;10211;49.476;11.010;2023-09-12T09:53:56;38.20;89.30
16999;DHT22;10211;49.476;11.010;2023-09-12T09:56:24;39.40;79.60
16999;DHT22;10211;49.476;11.010;2023-09-12T09:58:52;40.70;72.20
16999;DHT22;10211;49.476;11.010;2023-09-12T10:01:20;42.10;66.50
16999;DHT22;10211;49.476;11.010;2023-09-12T10:03:48;43.90;61.10
16999;DHT22;10211;49.476;11.010;2023-09-12T10:06:17;45.40;57.80
16999;DHT22;10211;49.476;11.010;2023-09-12T10:08:46;46.50;55.00
16999;DHT22;10211;49.476;11.010;2023-09-12T10:11:16;47.60;52.50
16999;DHT22;10211;49.476;11.010;2023-09-12T10:13:46;48.60;50.70
16999;DHT22;10211;49.476;11.010;2023-09-12T10:16:16;49.30;46.60
16999;DHT22;10211;49.476;11.010;2023-09-12T10:18:49;50.00;46.20
16999;DHT22;10211;49.476;11.010;2023-09-12T10:21:23;50.80;44.10
16999;DHT22;10211;49.476;11.010;2023-09-12T10:23:53;50.90;42.60
16999;DHT22;10211;49.476;11.010;2023-09-12T10:26:22;50.80;43.20
16999;DHT22;10211;49.476;11.010;2023-09-12T10:28:49;50.70;42.60
16999;DHT22;10211;49.476;11.010;2023-09-12T10:31:17;50.90;41.30
16999;DHT22;10211;49.476;11.010;2023-09-12T10:33:45;51.40;41.80
16999;DHT22;10211;49.476;11.010;2023-09-12T10:36:14;51.90;41.20
16999;DHT22;10211;49.476;11.010;2023-09-12T10:38:44;51.60;41.20
16999;DHT22;10211;49.476;11.010;2023-09-12T10:41:11;51.10;41.20
16999;DHT22;10211;49.476;11.010;2023-09-12T10:43:41;50.50;41.40
16999;DHT22;10211;49.476;11.010;2023-09-12T10:46:08;50.30;41.10
16999;DHT22;10211;49.476;11.010;2023-09-12T10:48:35;50.10;40.70
16999;DHT22;10211;49.476;11.010;2023-09-12T10:51:02;50.10;40.90
16999;DHT22;10211;49.476;11.010;2023-09-12T10:53:30;50.20;40.80
16999;DHT22;10211;49.476;11.010;2023-09-12T10:56:01;50.80;40.60
16999;DHT22;10211;49.476;11.010;2023-09-12T11:01:43;51.80;39.90
16999;DHT22;10211;49.476;11.010;2023-09-12T11:04:34;51.40;39.60
16999;DHT22;10211;49.476;11.010;2023-09-12T11:07:32;51.60;39.40
16999;DHT22;10211;49.476;11.010;2023-09-12T11:10:20;51.80;39.40
16999;DHT22;10211;49.476;11.010;2023-09-12T11:12:50;51.30;39.80
16999;DHT22;10211;49.476;11.010;2023-09-12T11:15:19;51.30;39.40
16999;DHT22;10211;49.476;11.010;2023-09-12T11:17:46;50.60;39.20
16999;DHT22;10211;49.476;11.010;2023-09-12T11:20:14;50.70;39.60
16999;DHT22;10211;49.476;11.010;2023-09-12T11:22:43;50.40;40.00
16999;DHT22;10211;49.476;11.010;2023-09-12T11:25:17;49.80;39.20
16999;DHT22;10211;49.476;11.010;2023-09-12T11:27:46;49.40;40.70
16999;DHT22;10211;49.476;11.010;2023-09-12T11:30:29;49.00;40.40
16999;DHT22;10211;49.476;11.010;2023-09-12T11:32:57;49.10;40.90
16999;DHT22;10211;49.476;11.010;2023-09-12T11:35:26;48.80;40.50
16999;DHT22;10211;49.476;11.010;2023-09-12T11:37:54;48.50;41.30
16999;DHT22;10211;49.476;11.010;2023-09-12T11:40:23;48.30;41.30
16999;DHT22;10211;49.476;11.010;2023-09-12T11:42:50;48.10;41.10
16999;DHT22;10211;49.476;11.010;2023-09-12T11:45:18;48.60;41.20
16999;DHT22;10211;49.476;11.010;2023-09-12T11:47:47;48.70;40.80
16999;DHT22;10211;49.476;11.010;2023-09-12T11:50:27;48.30;40.20
16999;DHT22;10211;49.476;11.010;2023-09-12T11:53:01;48.10;41.10
16999;DHT22;10211;49.476;11.010;2023-09-12T11:55:34;47.90;41.00
16999;DHT22;10211;49.476;11.010;2023-09-12T11:58:01;46.40;41.20
16999;DHT22;10211;49.476;11.010;2023-09-12T12:00:29;46.00;42.10
16999;DHT22;10211;49.476;11.010;2023-09-12T12:02:57;46.30;42.30
16999;DHT22;10211;49.476;11.010;2023-09-12T12:05:24;46.70;42.70
16999;DHT22;10211;49.476;11.010;2023-09-12T12:07:51;47.40;42.10
16999;DHT22;10211;49.476;11.010;2023-09-12T12:10:18;47.90;41.70
16999;DHT22;10211;49.476;11.010;2023-09-12T12:12:46;48.10;41.90
16999;DHT22;10211;49.476;11.010;2023-09-12T12:15:13;48.30;41.60
16999;DHT22;10211;49.476;11.010;2023-09-12T12:17:41;48.20;41.10
16999;DHT22;10211;49.476;11.010;2023-09-12T12:20:11;46.90;42.60
16999;DHT22;10211;49.476;11.010;2023-09-12T12:22:38;45.30;42.70
16999;DHT22;10211;49.476;11.010;2023-09-12T12:25:09;44.80;43.70
16999;DHT22;10211;49.476;11.010;2023-09-12T12:27:36;44.40;43.90
16999;DHT22;10211;49.476;11.010;2023-09-12T12:30:05;44.60;44.20
16999;DHT22;10211;49.476;11.010;2023-09-12T12:32:32;44.40;44.30
16999;DHT22;10211;49.476;11.010;2023-09-12T12:34:59;43.90;44.70
16999;DHT22;10211;49.476;11.010;2023-09-12T12:37:30;43.60;45.10
16999;DHT22;10211;49.476;11.010;2023-09-12T12:39:57;43.50;45.30
16999;DHT22;10211;49.476;11.010;2023-09-12T12:42:25;43.90;45.10
16999;DHT22;10211;49.476;11.010;2023-09-12T12:44:53;43.80;45.20
16999;DHT22;10211;49.476;11.010;2023-09-12T12:47:21;43.60;44.60
16999;DHT22;10211;49.476;11.010;2023-09-12T12:49:50;43.70;44.50
16999;DHT22;10211;49.476;11.010;2023-09-12T12:52:22;43.50;45.00
16999;DHT22;10211;49.476;11.010;2023-09-12T12:54:51;43.50;44.60
16999;DHT22;10211;49.476;11.010;2023-09-12T12:57:20;43.60;45.30
16999;DHT22;10211;49.476;11.010;2023-09-12T12:59:48;43.80;44.60
16999;DHT22;10211;49.476;11.010;2023-09-12T13:02:33;43.50;45.20
16999;DHT22;10211;49.476;11.010;2023-09-12T13:05:01;43.00;45.80
16999;DHT22;10211;49.476;11.010;2023-09-12T13:07:28;42.90;45.70
16999;DHT22;10211;49.476;11.010;2023-09-12T13:09:56;42.60;46.20
16999;DHT22;10211;49.476;11.010;2023-09-12T13:12:23;42.10;45.70
16999;DHT22;10211;49.476;11.010;2023-09-12T13:14:50;41.80;46.40
16999;DHT22;10211;49.476;11.010;2023-09-12T13:17:17;41.80;46.30
16999;DHT22;10211;49.476;11.010;2023-09-12T13:19:43;41.80;46.70
16999;DHT22;10211;49.476;11.010;2023-09-12T13:22:10;41.70;46.60
16999;DHT22;10211;49.476;11.010;2023-09-12T13:24:38;41.50;46.90
16999;DHT22;10211;49.476;11.010;2023-09-12T13:27:06;40.80;48.00
16999;DHT22;10211;49.476;11.010;2023-09-12T13:29:33;40.20;47.80
16999;DHT22;10211;49.476;11.010;2023-09-12T13:31:59;39.80;49.40
16999;DHT22;10211;49.476;11.010;2023-09-12T13:34:26;39.40;51.00
16999;DHT22;10211;49.476;11.010;2023-09-12T13:36:53;38.80;51.40
16999;DHT22;10211;49.476;11.010;2023-09-12T13:39:20;38.20;50.90
16999;DHT22;10211;49.476;11.010;2023-09-12T13:41:47;37.70;50.30
16999;DHT22;10211;49.476;11.010;2023-09-12T13:44:15;37.20;51.70
16999;DHT22;10211;49.476;11.010;2023-09-12T13:46:42;36.80;52.30
16999;DHT22;10211;49.476;11.010;2023-09-12T13:49:10;36.30;53.50
16999;DHT22;10211;49.476;11.010;2023-09-12T13:51:36;35.80;54.20
16999;DHT22;10211;49.476;11.010;2023-09-12T13:54:03;35.40;55.10
16999;DHT22;10211;49.476;11.010;2023-09-12T13:56:33;35.10;56.40
16999;DHT22;10211;49.476;11.010;2023-09-12T13:59:01;34.80;57.50
16999;DHT22;10211;49.476;11.010;2023-09-12T14:01:43;34.60;57.60
16999;DHT22;10211;49.476;11.010;2023-09-12T14:04:10;34.30;56.00
16999;DHT22;10211;49.476;11.010;2023-09-12T14:06:39;34.10;58.60
16999;DHT22;10211;49.476;11.010;2023-09-12T14:09:06;34.00;60.10
16999;DHT22;10211;49.476;11.010;2023-09-12T14:11:35;33.70;59.10
16999;DHT22;10211;49.476;11.010;2023-09-12T14:14:03;33.50;57.00
16999;DHT22;10211;49.476;11.010;2023-09-12T14:16:30;33.40;57.80
16999;DHT22;10211;49.476;11.010;2023-09-12T14:18:59;33.40;58.30
16999;DHT22;10211;49.476;11.010;2023-09-12T14:21:25;33.30;59.50
16999;DHT22;10211;49.476;11.010;2023-09-12T14:23:52;33.40;59.10
16999;DHT22;10211;49.476;11.010;2023-09-12T14:26:19;33.20;59.60
16999;DHT22;10211;49.476;11.010;2023-09-12T14:28:46;33.20;59.80
16999;DHT22;10211;49.476;11.010;2023-09-12T14:31:13;33.20;60.30
16999;DHT22;10211;49.476;11.010;2023-09-12T14:33:41;33.20;60.30
16999;DHT22;10211;49.476;11.010;2023-09-12T14:36:09;33.20;60.70
16999;DHT22;10211;49.476;11.010;2023-09-12T14:38:36;33.00;62.80
16999;DHT22;10211;49.476;11.010;2023-09-12T14:41:03;32.90;60.90
16999;DHT22;10211;49.476;11.010;2023-09-12T14:43:30;32.80;60.00
16999;DHT22;10211;49.476;11.010;2023-09-12T14:45:57;32.80;62.00
16999;DHT22;10211;49.476;11.010;2023-09-12T14:48:24;32.90;63.00
16999;DHT22;10211;49.476;11.010;2023-09-12T14:50:50;32.90;62.40
16999;DHT22;10211;49.476;11.010;2023-09-12T14:53:18;32.90;61.80
16999;DHT22;10211;49.476;11.010;2023-09-12T14:55:51;33.00;61.80
16999;DHT22;10211;49.476;11.010;2023-09-12T14:58:19;33.40;61.00
16999;DHT22;10211;49.476;11.010;2023-09-12T15:00:46;33.00;60.20
16999;DHT22;10211;49.476;11.010;2023-09-12T15:03:13;33.00;60.80
16999;DHT22;10211;49.476;11.010;2023-09-12T15:05:40;32.90;64.10
16999;DHT22;10211;49.476;11.010;2023-09-12T15:08:06;32.80;65.50
16999;DHT22;10211;49.476;11.010;2023-09-12T15:10:35;32.70;67.20
16999;DHT22;10211;49.476;11.010;2023-09-12T15:13:02;32.60;67.30
16999;DHT22;10211;49.476;11.010;2023-09-12T15:15:28;32.40;67.30
16999;DHT22;10211;49.476;11.010;2023-09-12T15:17:55;32.40;69.70
16999;DHT22;10211;49.476;11.010;2023-09-12T15:20:22;32.50;69.80
16999;DHT22;10211;49.476;11.010;2023-09-12T15:22:49;32.60;69.70
16999;DHT22;10211;49.476;11.010;2023-09-12T15:25:15;32.60;68.90